createdAt,value
2022-09-26T00:00:49.561Z,3.53
2022-09-26T00:03:17.587Z,3.47
2022-09-26T00:05:46.825Z,3.28
2022-09-26T00:08:14.654Z,3.40
2022-09-26T00:10:42.486Z,3.28
2022-09-26T00:13:10.352Z,3.50
2022-09-26T00:15:38.213Z,3.00
2022-09-26T00:18:06.102Z,3.10
2022-09-26T00:20:34.004Z,3.00
2022-09-26T00:23:03.163Z,3.10
2022-09-26T00:25:31.060Z,2.95
2022-09-26T00:27:58.928Z,3.10
2022-09-26T00:30:26.839Z,3.25
2022-09-26T00:32:54.694Z,3.23
2022-09-26T00:35:22.531Z,3.40
2022-09-26T00:37:50.373Z,3.28
2022-09-26T00:40:19.859Z,3.03
2022-09-26T00:42:47.832Z,3.10
2022-09-26T00:45:15.790Z,3.55
2022-09-26T00:47:46.253Z,3.38
2022-09-26T00:50:19.717Z,3.20
2022-09-26T00:52:51.872Z,3.10
2022-09-26T00:55:23.681Z,3.07
2022-09-26T00:57:57.636Z,3.15
2022-09-26T01:00:25.547Z,3.13
2022-09-26T01:02:54.376Z,2.78
2022-09-26T01:05:24.485Z,2.95
2022-09-26T01:07:53.964Z,3.00
2022-09-26T01:10:24.433Z,3.10
2022-09-26T01:12:52.616Z,3.10
2022-09-26T01:15:20.806Z,3.03
2022-09-26T01:17:49.752Z,3.40
2022-09-26T01:20:38.284Z,3.35
2022-09-26T01:23:41.714Z,3.20
2022-09-26T01:26:29.229Z,2.88
2022-09-26T01:29:31.879Z,3.15
2022-09-26T01:32:22.970Z,3.05
2022-09-26T01:34:56.758Z,3.70
2022-09-26T01:37:32.017Z,3.20
2022-09-26T01:40:09.411Z,4.63
2022-09-26T01:42:40.428Z,3.20
2022-09-26T01:45:12.610Z,2.70
2022-09-26T01:47:43.745Z,3.20
2022-09-26T01:50:19.022Z,2.72
2022-09-26T01:52:51.843Z,3.10
2022-09-26T01:55:23.865Z,3.03
2022-09-26T01:57:54.938Z,2.78
2022-09-26T02:00:23.431Z,2.97
2022-09-26T02:02:52.782Z,3.15
2022-09-26T02:05:25.305Z,3.10
2022-09-26T02:07:56.361Z,2.95
2022-09-26T02:10:27.524Z,2.92
2022-09-26T02:12:59.335Z,2.83
2022-09-26T02:15:30.614Z,2.78
2022-09-26T02:18:06.500Z,2.70
2022-09-26T02:20:36.619Z,2.83
2022-09-26T02:23:05.169Z,3.03
2022-09-26T02:25:34.522Z,2.90
2022-09-26T02:28:02.829Z,2.80
2022-09-26T02:30:31.032Z,3.30
2022-09-26T02:33:01.028Z,2.90
2022-09-26T02:35:46.321Z,3.45
2022-09-26T02:38:14.227Z,3.20
2022-09-26T02:40:54.036Z,3.30
2022-09-26T02:43:32.366Z,3.05
2022-09-26T02:46:09.228Z,3.85
2022-09-26T02:48:48.385Z,3.90
2022-09-26T02:51:31.789Z,4.90
2022-09-26T02:54:17.262Z,5.35
2022-09-26T02:56:59.161Z,5.38
2022-09-26T02:59:35.123Z,5.53
2022-09-26T03:02:06.973Z,5.47
2022-09-26T03:04:43.030Z,5.50
2022-09-26T03:07:14.758Z,5.80
2022-09-26T03:09:43.676Z,6.23
2022-09-26T03:12:12.043Z,6.13
2022-09-26T03:14:41.707Z,6.27
2022-09-26T03:17:10.139Z,6.35
2022-09-26T03:19:44.967Z,7.55
2022-09-26T03:22:13.049Z,6.80
2022-09-26T03:24:42.152Z,7.00
2022-09-26T03:27:11.778Z,6.93
2022-09-26T03:29:40.044Z,7.10
2022-09-26T03:32:12.857Z,7.63
2022-09-26T03:34:42.570Z,8.17
2022-09-26T03:37:11.325Z,8.00
2022-09-26T03:39:39.363Z,7.40
2022-09-26T03:42:14.268Z,8.30
2022-09-26T03:44:44.070Z,8.00
2022-09-26T03:47:15.791Z,8.10
2022-09-26T03:49:47.272Z,8.57
2022-09-26T03:52:15.222Z,8.30
2022-09-26T03:54:44.868Z,7.93
2022-09-26T03:57:13.620Z,8.60
2022-09-26T03:59:48.038Z,8.45
2022-09-26T04:02:18.272Z,8.70
2022-09-26T04:04:51.162Z,8.60
2022-09-26T04:07:19.590Z,7.80
2022-09-26T04:09:47.680Z,8.10
2022-09-26T04:12:15.684Z,8.50
2022-09-26T04:14:45.285Z,8.88
2022-09-26T04:17:13.545Z,9.00
2022-09-26T04:19:44.503Z,8.95
2022-09-26T04:22:13.781Z,8.63
2022-09-26T04:24:41.991Z,8.43
2022-09-26T04:27:09.801Z,9.50
2022-09-26T04:29:38.560Z,8.70
2022-09-26T04:32:12.490Z,8.57
2022-09-26T04:34:52.656Z,8.90
2022-09-26T04:37:22.651Z,8.40
2022-09-26T04:39:50.631Z,8.80
2022-09-26T04:42:18.515Z,9.05
2022-09-26T04:44:48.173Z,9.00
2022-09-26T04:47:17.701Z,9.07
2022-09-26T04:50:06.402Z,9.63
2022-09-26T04:52:35.633Z,9.40
2022-09-26T04:55:03.953Z,9.80
2022-09-26T04:57:32.053Z,9.90
2022-09-26T05:00:00.098Z,10.32
2022-09-26T05:02:29.981Z,9.90
2022-09-26T05:04:59.779Z,10.32
2022-09-26T05:07:31.438Z,10.10
2022-09-26T05:10:00.660Z,10.30
2022-09-26T05:12:28.759Z,10.55
2022-09-26T05:14:56.821Z,9.98
2022-09-26T05:17:24.857Z,9.80
2022-09-26T05:19:56.978Z,10.80
2022-09-26T05:22:34.047Z,10.13
2022-09-26T05:25:22.161Z,9.85
2022-09-26T05:27:50.077Z,9.60
2022-09-26T05:30:18.239Z,9.48
2022-09-26T05:32:48.359Z,9.50
2022-09-26T05:35:17.654Z,9.45
2022-09-26T05:37:46.229Z,8.70
2022-09-26T05:40:33.401Z,8.20
2022-09-26T05:43:02.495Z,8.65
2022-09-26T05:45:31.299Z,8.23
2022-09-26T05:48:00.536Z,8.10
2022-09-26T05:50:28.877Z,7.85
2022-09-26T05:52:58.658Z,7.33
2022-09-26T05:55:29.027Z,7.50
2022-09-26T05:58:15.755Z,7.60
2022-09-26T06:01:08.069Z,7.85
2022-09-26T06:03:36.825Z,7.70
2022-09-26T06:06:11.531Z,7.30
2022-09-26T06:08:40.479Z,6.82
2022-09-26T06:11:31.617Z,6.57
2022-09-26T06:14:01.120Z,6.40
2022-09-26T06:16:29.753Z,6.63
2022-09-26T06:18:58.632Z,6.60
2022-09-26T06:21:27.413Z,6.72
2022-09-26T06:24:00.578Z,6.53
2022-09-26T06:26:31.844Z,6.50
2022-09-26T06:29:00.728Z,6.55
2022-09-26T06:31:31.640Z,5.80
2022-09-26T06:34:13.103Z,6.40
2022-09-26T06:37:00.291Z,5.65
2022-09-26T06:39:35.541Z,5.60
2022-09-26T06:42:07.401Z,5.45
2022-09-26T06:44:59.488Z,5.28
2022-09-26T06:47:48.229Z,4.93
2022-09-26T06:50:53.185Z,4.35
2022-09-26T06:53:21.720Z,4.72
2022-09-26T06:55:50.331Z,4.00
2022-09-26T06:58:20.335Z,4.40
2022-09-26T07:00:55.063Z,4.40
2022-09-26T07:04:01.394Z,3.92
2022-09-26T07:06:49.893Z,3.80
2022-09-26T07:09:18.505Z,3.60
2022-09-26T07:14:42.963Z,3.05
2022-09-26T07:17:28.735Z,3.00
2022-09-26T07:20:37.428Z,3.40
2022-09-26T07:23:16.919Z,3.40
2022-09-26T07:25:46.394Z,3.38
2022-09-26T07:28:15.171Z,3.08
2022-09-26T07:30:51.893Z,2.40
2022-09-26T07:33:45.672Z,2.70
2022-09-26T07:36:13.631Z,2.70
2022-09-26T07:38:43.810Z,2.63
2022-09-26T07:41:12.260Z,2.72
2022-09-26T07:46:48.999Z,3.10
2022-09-26T07:49:34.529Z,3.05
2022-09-26T07:52:22.466Z,2.92
2022-09-26T07:55:29.384Z,2.78
2022-09-26T07:58:07.845Z,2.53
2022-09-26T08:00:55.892Z,2.35
2022-09-26T08:03:44.863Z,2.30
2022-09-26T08:06:23.937Z,2.30
2022-09-26T08:08:54.271Z,2.20
2022-09-26T08:11:41.820Z,2.28
2022-09-26T08:14:20.801Z,2.50
2022-09-26T08:17:21.657Z,2.22
2022-09-26T08:19:50.864Z,2.40
2022-09-26T08:22:18.738Z,2.28
2022-09-26T08:24:50.885Z,2.25
2022-09-26T08:27:33.541Z,2.20
2022-09-26T08:30:02.685Z,2.20
2022-09-26T08:32:31.662Z,2.10
2022-09-26T08:35:00.949Z,2.30
2022-09-26T08:38:04.828Z,2.30
2022-09-26T08:40:51.643Z,2.10
2022-09-26T08:43:55.971Z,2.63
2022-09-26T08:46:59.830Z,2.10
2022-09-26T08:49:49.127Z,2.10
2022-09-26T08:52:29.570Z,2.40
2022-09-26T08:54:59.675Z,2.45
2022-09-26T08:57:34.075Z,2.08
2022-09-26T09:00:10.066Z,2.40
2022-09-26T09:02:42.417Z,2.00
2022-09-26T09:05:19.180Z,2.28
2022-09-26T09:07:52.515Z,2.07
2022-09-26T09:10:28.859Z,2.33
2022-09-26T09:13:10.782Z,2.17
2022-09-26T09:16:04.885Z,2.55
2022-09-26T09:18:55.436Z,2.30
2022-09-26T09:21:41.765Z,2.50
2022-09-26T09:24:52.464Z,2.58
2022-09-26T09:30:19.852Z,2.67
2022-09-26T09:33:13.180Z,2.50
2022-09-26T09:36:08.082Z,2.30
2022-09-26T09:38:45.788Z,2.38
2022-09-26T09:41:25.486Z,2.20
2022-09-26T09:43:55.565Z,2.40
2022-09-26T09:46:28.714Z,2.40
2022-09-26T09:48:58.304Z,2.20
2022-09-26T09:51:39.592Z,2.15
2022-09-26T09:54:25.903Z,2.00
2022-09-26T09:57:12.623Z,2.20
2022-09-26T09:59:52.680Z,2.35
2022-09-26T10:02:29.966Z,2.20
2022-09-26T10:05:06.201Z,2.35
2022-09-26T10:07:34.086Z,2.20
2022-09-26T10:10:29.574Z,2.20
2022-09-26T10:13:17.898Z,2.30
2022-09-26T10:16:07.047Z,2.00
2022-09-26T10:19:03.321Z,2.28
2022-09-26T10:21:39.322Z,2.15
2022-09-26T10:24:08.681Z,2.20
2022-09-26T10:26:47.402Z,2.05
2022-09-26T10:29:35.153Z,2.20
2022-09-26T10:32:03.740Z,2.03
2022-09-26T10:34:35.292Z,1.90
2022-09-26T10:37:21.573Z,1.90
2022-09-26T10:40:08.450Z,2.10
2022-09-26T10:42:38.317Z,1.80
2022-09-26T10:45:15.814Z,1.90
2022-09-26T10:48:02.902Z,1.88
2022-09-26T10:50:51.449Z,1.75
2022-09-26T10:53:40.134Z,1.30
2022-09-26T10:56:11.985Z,1.65
2022-09-26T10:58:42.114Z,1.35
2022-09-26T11:01:21.367Z,1.55
2022-09-26T11:03:51.179Z,1.60
2022-09-26T11:06:27.926Z,1.30
2022-09-26T11:09:03.519Z,1.35
2022-09-26T11:11:39.329Z,1.23
2022-09-26T11:14:09.439Z,1.42
2022-09-26T11:16:51.334Z,2.53
2022-09-26T11:19:28.873Z,1.37
2022-09-26T11:22:03.189Z,1.40
2022-09-26T11:27:31.569Z,1.33
2022-09-26T11:33:11.226Z,1.50
2022-09-26T11:36:10.969Z,1.40
2022-09-26T11:38:46.371Z,1.33
2022-09-26T11:41:38.279Z,1.30
2022-09-26T11:44:33.807Z,1.40
2022-09-26T11:47:44.799Z,1.30
2022-09-26T11:50:30.173Z,1.30
2022-09-26T11:53:44.257Z,1.20
2022-09-26T11:56:26.559Z,1.48
2022-09-26T11:59:01.443Z,1.08
2022-09-26T12:01:38.198Z,1.25
2022-09-26T12:04:31.013Z,1.30
2022-09-26T12:07:07.171Z,1.13
2022-09-26T12:09:48.946Z,1.30
2022-09-26T12:12:20.712Z,1.50
2022-09-26T12:15:02.208Z,1.40
2022-09-26T12:17:41.031Z,1.40
2022-09-26T12:20:18.251Z,1.10
2022-09-26T12:22:52.093Z,1.40
2022-09-26T12:25:30.102Z,1.20
2022-09-26T12:28:09.257Z,1.30
2022-09-26T12:30:41.464Z,1.13
2022-09-26T12:33:30.471Z,1.50
2022-09-26T12:36:02.264Z,1.27
2022-09-26T12:38:54.355Z,1.30
2022-09-26T12:41:51.713Z,1.35
2022-09-26T12:44:31.290Z,1.30
2022-09-26T12:47:10.689Z,1.30
2022-09-26T12:49:55.087Z,1.38
2022-09-26T12:52:34.790Z,1.33
2022-09-26T12:55:15.986Z,1.40
2022-09-26T12:57:57.216Z,1.33
2022-09-26T13:00:27.000Z,1.20
2022-09-26T13:03:28.208Z,1.20
2022-09-26T13:06:34.953Z,1.20
2022-09-26T13:09:13.162Z,1.10
2022-09-26T13:11:45.831Z,1.10
2022-09-26T13:14:27.912Z,1.10
2022-09-26T13:17:09.781Z,1.55
2022-09-26T13:19:40.753Z,1.40
2022-09-26T13:22:22.054Z,1.20
2022-09-26T13:24:53.543Z,1.52
2022-09-26T13:27:26.765Z,1.25
2022-09-26T13:30:01.888Z,1.13
2022-09-26T13:32:36.868Z,1.40
2022-09-26T13:35:09.386Z,1.70
2022-09-26T13:37:47.735Z,1.50
2022-09-26T13:40:28.926Z,1.42
2022-09-26T13:43:07.809Z,1.20
2022-09-26T13:45:49.016Z,1.30
2022-09-26T13:48:20.825Z,2.40
2022-09-26T13:50:55.834Z,1.60
2022-09-26T13:53:28.794Z,1.50
2022-09-26T13:56:47.506Z,1.42
2022-09-26T13:59:34.553Z,1.45
2022-09-26T14:02:24.724Z,1.20
2022-09-26T14:04:53.786Z,1.50
2022-09-26T14:07:42.588Z,1.90
2022-09-26T14:10:19.517Z,2.17
2022-09-26T14:12:56.958Z,2.00
2022-09-26T14:15:28.321Z,1.50
2022-09-26T14:18:29.557Z,1.52
2022-09-26T14:21:08.850Z,1.60
2022-09-26T14:23:41.790Z,1.63
2022-09-26T14:26:11.818Z,1.48
2022-09-26T14:28:40.787Z,1.83
2022-09-26T14:31:32.778Z,1.42
2022-09-26T14:34:17.038Z,1.50
2022-09-26T14:36:45.762Z,1.42
2022-09-26T14:39:26.128Z,1.67
2022-09-26T14:41:54.751Z,1.40
2022-09-26T14:44:23.650Z,1.40
2022-09-26T14:46:54.454Z,1.20
2022-09-26T14:49:24.666Z,3.15
2022-09-26T14:51:58.774Z,1.17
2022-09-26T14:54:31.923Z,1.42
2022-09-26T14:57:01.635Z,1.33
2022-09-26T14:59:43.683Z,1.35
2022-09-26T15:02:21.308Z,1.40
2022-09-26T15:04:56.121Z,1.30
2022-09-26T15:07:25.806Z,1.40
2022-09-26T15:09:58.019Z,1.73
2022-09-26T15:12:29.910Z,1.50
2022-09-26T15:15:11.571Z,1.33
2022-09-26T15:17:45.659Z,1.70
2022-09-26T15:20:16.896Z,1.60
2022-09-26T15:22:45.291Z,1.77
2022-09-26T15:25:21.622Z,1.90
2022-09-26T15:27:53.843Z,1.42
2022-09-26T15:30:24.302Z,1.67
2022-09-26T15:32:57.288Z,1.40
2022-09-26T15:35:26.702Z,1.60
2022-09-26T15:37:58.541Z,1.40
2022-09-26T15:40:28.142Z,1.50
2022-09-26T15:43:07.962Z,1.70
2022-09-26T15:45:58.208Z,1.80
2022-09-26T15:48:30.230Z,1.60
2022-09-26T15:51:02.219Z,1.95
2022-09-26T15:53:34.747Z,1.85
2022-09-26T15:56:05.983Z,1.80
2022-09-26T15:58:37.765Z,1.63
2022-09-26T16:01:06.506Z,1.77
2022-09-26T16:03:45.130Z,1.90
2022-09-26T16:06:23.056Z,1.50
2022-09-26T16:08:54.094Z,1.30
2022-09-26T16:11:22.491Z,2.05
2022-09-26T16:13:51.956Z,1.40
2022-09-26T16:16:24.369Z,1.38
2022-09-26T16:18:57.205Z,1.70
2022-09-26T16:21:26.787Z,1.50
2022-09-26T16:23:57.074Z,1.48
2022-09-26T16:26:31.156Z,1.60
2022-09-26T16:29:00.620Z,1.47
2022-09-26T16:31:31.860Z,1.55
2022-09-26T16:34:02.454Z,1.70
2022-09-26T16:36:32.591Z,1.80
2022-09-26T16:39:02.316Z,1.40
2022-09-26T16:42:01.268Z,1.63
2022-09-26T16:44:33.535Z,1.55
2022-09-26T16:47:05.332Z,1.55
2022-09-26T16:49:42.202Z,1.63
2022-09-26T16:52:21.973Z,1.63
2022-09-26T16:54:49.921Z,1.70
2022-09-26T16:57:22.701Z,1.65
2022-09-26T16:59:51.068Z,1.42
2022-09-26T17:02:18.310Z,1.67
2022-09-26T17:04:48.505Z,4.00
2022-09-26T17:07:16.757Z,1.50
2022-09-26T17:09:44.615Z,1.70
2022-09-26T17:12:18.080Z,1.50
2022-09-26T17:14:49.262Z,1.40
2022-09-26T17:17:21.909Z,1.65
2022-09-26T17:19:58.208Z,1.52
2022-09-26T17:22:27.204Z,1.38
2022-09-26T17:24:55.559Z,1.63
2022-09-26T17:27:26.943Z,1.85
2022-09-26T17:30:02.321Z,1.55
2022-09-26T17:32:32.461Z,1.77
2022-09-26T17:35:03.805Z,2.10
2022-09-26T17:37:32.038Z,2.83
2022-09-26T17:39:59.885Z,1.75
2022-09-26T17:42:30.282Z,1.90
2022-09-26T17:44:58.129Z,1.98
2022-09-26T17:47:26.378Z,1.92
2022-09-26T17:49:54.794Z,1.90
2022-09-26T17:52:25.873Z,3.50
2022-09-26T17:54:57.340Z,1.90
2022-09-26T17:57:29.957Z,2.58
2022-09-26T17:59:57.901Z,2.20
2022-09-26T18:02:30.551Z,2.50
2022-09-26T18:05:00.946Z,2.60
2022-09-26T18:07:34.130Z,3.20
2022-09-26T18:10:03.524Z,2.50
2022-09-26T18:12:31.336Z,2.53
2022-09-26T18:14:59.967Z,2.10
2022-09-26T18:17:27.939Z,2.20
2022-09-26T18:19:55.778Z,2.30
2022-09-26T18:22:27.179Z,2.10
2022-09-26T18:25:01.310Z,2.20
2022-09-26T18:27:29.188Z,2.20
2022-09-26T18:29:56.989Z,3.15
2022-09-26T18:32:27.260Z,3.05
2022-09-26T18:34:55.101Z,3.03
2022-09-26T18:37:22.916Z,2.30
2022-09-26T18:39:54.661Z,3.97
2022-09-26T18:42:25.012Z,2.78
2022-09-26T18:45:03.503Z,2.45
2022-09-26T18:47:34.545Z,2.33
2022-09-26T18:50:02.667Z,2.40
2022-09-26T18:52:31.328Z,2.90
2022-09-26T18:55:17.039Z,2.70
2022-09-26T18:58:03.883Z,2.25
2022-09-26T19:00:31.722Z,2.92
2022-09-26T19:02:59.994Z,3.08
2022-09-26T19:05:27.928Z,3.33
2022-09-26T19:07:57.188Z,2.63
2022-09-26T19:10:27.068Z,2.78
2022-09-26T19:12:56.500Z,2.47
2022-09-26T19:15:24.676Z,2.45
2022-09-26T19:17:52.514Z,2.53
2022-09-26T19:20:20.313Z,2.28
2022-09-26T19:22:48.227Z,1.80
2022-09-26T19:25:16.067Z,2.10
2022-09-26T19:27:47.132Z,2.30
2022-09-26T19:30:18.399Z,1.40
2022-09-26T19:32:49.228Z,1.70
2022-09-26T19:35:23.055Z,1.30
2022-09-26T19:37:51.197Z,1.55
2022-09-26T19:40:20.592Z,1.50
2022-09-26T19:42:48.920Z,2.63
2022-09-26T19:45:19.527Z,1.60
2022-09-26T19:47:48.619Z,1.20
2022-09-26T19:50:18.290Z,1.50
2022-09-26T19:52:46.097Z,1.40
2022-09-26T19:55:15.469Z,1.30
2022-09-26T19:57:43.317Z,1.60
2022-09-26T20:00:12.740Z,1.42
2022-09-26T20:02:42.356Z,1.40
2022-09-26T20:05:16.947Z,1.30
2022-09-26T20:07:44.775Z,1.50
2022-09-26T20:10:15.572Z,1.70
2022-09-26T20:12:43.386Z,1.55
2022-09-26T20:15:12.590Z,2.10
2022-09-26T20:17:44.081Z,2.00
2022-09-26T20:20:16.925Z,1.85
2022-09-26T20:22:45.276Z,2.30
2022-09-26T20:25:15.666Z,2.08
2022-09-26T20:27:43.913Z,2.10
2022-09-26T20:30:32.462Z,1.88
2022-09-26T20:33:02.039Z,2.30
2022-09-26T20:35:35.344Z,2.22
2022-09-26T20:38:05.238Z,1.92
2022-09-26T20:40:33.331Z,2.50
2022-09-26T20:43:04.651Z,2.33
2022-09-26T20:45:38.639Z,2.58
2022-09-26T20:48:09.213Z,2.83
2022-09-26T20:50:38.468Z,2.90
2022-09-26T20:53:10.540Z,2.70
2022-09-26T20:55:43.217Z,4.07
2022-09-26T20:58:11.871Z,3.72
2022-09-26T21:00:39.851Z,3.90
2022-09-26T21:03:09.256Z,3.47
2022-09-26T21:05:37.808Z,3.50
2022-09-26T21:08:10.111Z,4.25
2022-09-26T21:10:37.974Z,4.40
2022-09-26T21:13:05.789Z,4.00
2022-09-26T21:15:34.190Z,3.47
2022-09-26T21:18:02.742Z,4.20
2022-09-26T21:20:33.772Z,4.72
2022-09-26T21:23:20.823Z,3.88
2022-09-26T21:25:48.694Z,4.07
2022-09-26T21:28:27.511Z,4.00
2022-09-26T21:30:56.265Z,4.77
2022-09-26T21:33:24.400Z,4.47
2022-09-26T21:35:53.614Z,5.35
2022-09-26T21:38:22.242Z,5.00
2022-09-26T21:40:54.186Z,4.93
2022-09-26T21:43:24.394Z,5.70
2022-09-26T21:45:52.347Z,5.10
2022-09-26T21:48:20.157Z,4.97
2022-09-26T21:50:55.298Z,5.20
2022-09-26T21:53:28.998Z,5.75
2022-09-26T21:56:05.112Z,5.55
2022-09-26T21:58:38.010Z,5.70
2022-09-26T22:01:06.122Z,5.38
2022-09-26T22:03:35.761Z,6.37
2022-09-26T22:06:07.415Z,7.18
2022-09-26T22:08:37.106Z,7.65
2022-09-26T22:11:05.212Z,8.23
2022-09-26T22:13:33.686Z,5.93
2022-09-26T22:16:05.958Z,6.43
2022-09-26T22:18:34.121Z,6.90
2022-09-26T22:21:03.807Z,6.27
2022-09-26T22:23:32.030Z,6.45
2022-09-26T22:26:01.359Z,6.20
2022-09-26T22:28:29.685Z,6.95
2022-09-26T22:31:01.154Z,7.33
2022-09-26T22:33:29.270Z,7.93
2022-09-26T22:35:57.332Z,7.45
2022-09-26T22:38:25.380Z,8.00
2022-09-26T22:40:57.286Z,7.53
2022-09-26T22:43:26.737Z,7.80
2022-09-26T22:45:54.635Z,7.97
2022-09-26T22:48:22.502Z,8.50
2022-09-26T22:50:50.373Z,9.55
2022-09-26T22:53:18.188Z,10.70
2022-09-26T22:55:54.293Z,10.95
2022-09-26T22:58:22.609Z,11.73
2022-09-26T23:00:52.327Z,10.27
2022-09-26T23:03:20.470Z,10.97
2022-09-26T23:05:49.929Z,11.30
2022-09-26T23:08:17.806Z,12.20
2022-09-26T23:10:50.085Z,11.50
2022-09-26T23:13:18.062Z,12.40
2022-09-26T23:15:46.412Z,11.93
2022-09-26T23:18:15.636Z,12.70
2022-09-26T23:20:44.617Z,12.98
2022-09-26T23:23:13.529Z,13.13
2022-09-26T23:25:46.538Z,13.63
2022-09-26T23:28:14.613Z,10.77
2022-09-26T23:30:42.882Z,12.27
2022-09-26T23:33:10.858Z,12.60
2022-09-26T23:35:40.385Z,10.43
2022-09-26T23:38:08.223Z,10.52
2022-09-26T23:40:37.648Z,9.77
2022-09-26T23:43:05.455Z,9.32
2022-09-26T23:45:33.644Z,9.23
2022-09-26T23:48:01.832Z,9.35
2022-09-26T23:50:29.628Z,8.63
2022-09-26T23:53:02.251Z,8.65
2022-09-26T23:55:33.802Z,8.35
2022-09-26T23:58:01.676Z,8.20
